Theotokos — SY2775 — position and weather

sailwx.info

Track history (hours):
 
Tides and Currents Weather Stations Pressure Air Temp Water Temp Dewpoint Dewpoint Depression Visibility Wind Speed Wind Dir Waves Ship Positions

Theotokos

Last reported at 2018-Jun-13 10:12 UTC. Time now 2018-Jun-24 20:30 UTC.
Position N 38°07' E 022°37'.
Warning: this ship's position is 11 days out of date.

Length 82 m; draft 2.1 m.

Type: Passenger vessel. MMSI: 237622300.

Date/timePositionNaut miles runAvg speedWind from/ knotsBaromVisibWave heightAir tempDewpointWater temp
2018-Jun-13 10:12N 38°07' E 022°37'2 9.0
2018-Jun-13 09:55N 38°06' E 022°40'4 8.8
2018-Jun-13 09:30N 38°04' E 022°44'4 8.6
2018-Jun-13 09:00N 38°01' E 022°48'4 8.4
2018-Jun-13 08:30N 37°59' E 022°53'4 8.0
2018-Jun-13 08:00N 37°57' E 022°57'4 7.3
2018-Jun-13 07:30N 37°55' E 023°01'3 6.5
2018-Jun-13 07:00N 37°54' E 023°05'4 8.9
2018-Jun-13 06:30N 37°55' E 023°10'5 9.5
2018-Jun-13 06:00N 37°56' E 023°16'5 9.1
2018-Jun-13 05:31N 37°57' E 023°22'3 5.9
2018-Jun-13 05:00N 37°59' E 023°25'4 7.9
2018-Jun-13 04:30N 38°01' E 023°29'4 7.3
2018-Jun-13 04:00N 37°59' E 023°33'1 2.3
2018-Jun-13 03:31N 37°58' E 023°32'0 0.0
2018-Jun-13 03:00N 37°58' E 023°32'0 0.0
2018-Jun-13 02:30N 37°58' E 023°32'0 0.0
2018-Jun-13 02:01N 37°58' E 023°32'0 0.0
2018-Jun-13 01:31N 37°58' E 023°32'0 0.0
2018-Jun-13 01:01N 37°58' E 023°32'0 0.0
2018-Jun-13 00:30N 37°58' E 023°32'0 0.0
2018-Jun-13 00:01N 37°58' E 023°32'0 0.0
2018-Jun-12 23:30N 37°58' E 023°32'0 0.0
2018-Jun-12 23:00N 37°58' E 023°32'0 0.0
2018-Jun-12 22:30N 37°58' E 023°32'0 0.0
2018-Jun-12 22:00N 37°58' E 023°32'0 0.0
2018-Jun-12 21:30N 37°58' E 023°32'0 0.0
2018-Jun-12 21:00N 37°58' E 023°32'0 0.0
2018-Jun-12 20:30N 37°58' E 023°32'0 0.0
2018-Jun-12 20:01N 37°58' E 023°32'0 0.0
2018-Jun-12 19:31N 37°58' E 023°32'0 0.0
2018-Jun-11 11:31N 37°58' E 023°32'0 0.0
2018-Jun-11 11:30N 37°58' E 023°32'0 0.0
2018-Jun-11 11:00N 37°58' E 023°32'0 0.0
2018-Jun-11 10:30N 37°58' E 023°32'0 0.0
2018-Jun-11 10:00N 37°58' E 023°32'0 0.0
2018-Jun-11 09:30N 37°58' E 023°32'0 0.0
2018-Jun-11 09:00N 37°58' E 023°32'0 0.0
2018-Jun-11 08:31N 37°58' E 023°32'0 0.0
2018-Jun-11 08:00N 37°58' E 023°32'0 0.0
2018-Jun-11 07:30N 37°58' E 023°32'0 0.0
2018-Jun-11 07:00N 37°58' E 023°32'0 0.0
2018-Jun-11 06:30N 37°58' E 023°32'0 0.0
2018-Jun-10 21:23N 37°58' E 023°32'1 3.5
2018-Jun-10 21:00N 37°58' E 023°33'1 1.1
2018-Jun-10 20:30N 37°58' E 023°33'1 1.6
2018-Jun-10 20:00N 37°58' E 023°32'1 2.5
2018-Jun-10 19:30N 37°58' E 023°33'0 0.4
2018-Jun-10 19:00N 37°58' E 023°33'1 2.3
2018-Jun-10 18:30N 37°58' E 023°32'1 2.4
2018-Jun-10 17:59N 37°58' E 023°33'1 2.6
2018-Jun-10 17:30N 37°58' E 023°32'1 2.4
2018-Jun-10 17:00N 37°58' E 023°33'1 1.7
2018-Jun-10 16:30N 37°58' E 023°32'0 1.0
2018-Jun-10 16:00N 37°58' E 023°32'1 1.5
2018-Jun-10 15:30N 37°58' E 023°33'1 1.3
2018-Jun-10 15:00N 37°58' E 023°33'0 0.0
2018-Jun-10 14:00N 37°58' E 023°33'0 0.0
2018-Jun-10 13:30N 37°58' E 023°33'0 0.0
2018-Jun-10 13:00N 37°58' E 023°33'0 0.0
2018-Jun-09 12:53N 37°58' E 023°33'1 3.3
2018-Jun-09 12:30N 37°58' E 023°32'0 0.0
2018-Jun-09 12:00N 37°58' E 023°32'1 2.4
2018-Jun-09 11:30N 37°58' E 023°33'0 0.2
2018-Jun-09 11:00N 37°58' E 023°33'1 2.3
2018-Jun-09 10:30N 37°58' E 023°32'0 0.0
2018-Jun-09 10:00N 37°58' E 023°32'1 2.4
2018-Jun-09 09:30N 37°58' E 023°33'1 2.4
2018-Jun-09 09:00N 37°58' E 023°32'0 0.1
2018-Jun-09 08:30N 37°58' E 023°32'1 2.1
2018-Jun-09 08:00N 37°58' E 023°33'1 2.2
2018-Jun-09 07:30N 37°58' E 023°32'0 0.9
2018-Jun-09 07:00N 37°58' E 023°32'1 1.9
2018-Jun-09 06:30N 37°58' E 023°33'0 0.0
2018-Jun-09 06:00N 37°58' E 023°33'1 2.5
2018-Jun-09 05:30N 37°58' E 023°32'1 2.4
2018-Jun-09 05:00N 37°58' E 023°33'1 2.5
2018-Jun-09 04:30N 37°58' E 023°32'0 0.0
2018-Jun-08 19:16N 37°58' E 023°32'1 4.9
2018-Jun-08 19:00N 37°58' E 023°33'0 0.3
2018-Jun-08 18:30N 37°58' E 023°33'1 2.3
2018-Jun-08 18:00N 37°58' E 023°32'0 0.4
2018-Jun-08 17:30N 37°58' E 023°32'1 2.3
2018-Jun-08 17:00N 37°58' E 023°33'1 2.5
2018-Jun-08 16:30N 37°58' E 023°32'0 0.0
2018-Jun-08 16:00N 37°58' E 023°32'1 2.5
2018-Jun-08 15:30N 37°58' E 023°33'0 0.6
2018-Jun-08 15:00N 37°58' E 023°33'1 2.2
2018-Jun-08 14:30N 37°58' E 023°32'1 2.5
2018-Jun-08 14:00N 37°58' E 023°33'0 0.0
2018-Jun-08 13:30N 37°58' E 023°33'1 2.5
2018-Jun-08 13:00N 37°58' E 023°32'0 0.4
2018-Jun-08 12:30N 37°58' E 023°32'1 2.2
2018-Jun-08 12:00N 37°58' E 023°33'1 2.4
2018-Jun-08 11:30N 37°58' E 023°32'0 0.0
2018-Jun-08 11:00N 37°58' E 023°32'0 0.0
2018-Jun-08 10:30N 37°58' E 023°32'  
Track history (hours):
 
Tides and Currents Weather Stations Pressure Air Temp Water Temp Dewpoint Dewpoint Depression Visibility Wind Speed Wind Dir Waves Ship Positions

Theotokos

Last reported at 2018-Jun-13 10:12 UTC. Time now 2018-Jun-24 20:30 UTC.
Position N 38°07' E 022°37'.
Warning: this ship's position is 11 days out of date.

Length 82 m; draft 2.1 m.

Type: Passenger vessel. MMSI: 237622300.

Date/timePositionNaut miles runAvg speedWind from/ knotsBaromVisibWave heightAir tempDewpointWater temp
2018-Jun-13 10:12N 38°07' E 022°37'2 9.0
2018-Jun-13 09:55N 38°06' E 022°40'4 8.8
2018-Jun-13 09:30N 38°04' E 022°44'4 8.6
2018-Jun-13 09:00N 38°01' E 022°48'4 8.4
2018-Jun-13 08:30N 37°59' E 022°53'4 8.0
2018-Jun-13 08:00N 37°57' E 022°57'4 7.3
2018-Jun-13 07:30N 37°55' E 023°01'3 6.5
2018-Jun-13 07:00N 37°54' E 023°05'4 8.9
2018-Jun-13 06:30N 37°55' E 023°10'5 9.5
2018-Jun-13 06:00N 37°56' E 023°16'5 9.1
2018-Jun-13 05:31N 37°57' E 023°22'3 5.9
2018-Jun-13 05:00N 37°59' E 023°25'4 7.9
2018-Jun-13 04:30N 38°01' E 023°29'4 7.3
2018-Jun-13 04:00N 37°59' E 023°33'1 2.3
2018-Jun-13 03:31N 37°58' E 023°32'0 0.0
2018-Jun-13 03:00N 37°58' E 023°32'0 0.0
2018-Jun-13 02:30N 37°58' E 023°32'0 0.0
2018-Jun-13 02:01N 37°58' E 023°32'0 0.0
2018-Jun-13 01:31N 37°58' E 023°32'0 0.0
2018-Jun-13 01:01N 37°58' E 023°32'0 0.0
2018-Jun-13 00:30N 37°58' E 023°32'0 0.0
2018-Jun-13 00:01N 37°58' E 023°32'0 0.0
2018-Jun-12 23:30N 37°58' E 023°32'0 0.0
2018-Jun-12 23:00N 37°58' E 023°32'0 0.0
2018-Jun-12 22:30N 37°58' E 023°32'0 0.0
2018-Jun-12 22:00N 37°58' E 023°32'0 0.0
2018-Jun-12 21:30N 37°58' E 023°32'0 0.0
2018-Jun-12 21:00N 37°58' E 023°32'0 0.0
2018-Jun-12 20:30N 37°58' E 023°32'0 0.0
2018-Jun-12 20:01N 37°58' E 023°32'0 0.0
2018-Jun-12 19:31N 37°58' E 023°32'0 0.0
2018-Jun-11 11:31N 37°58' E 023°32'0 0.0
2018-Jun-11 11:30N 37°58' E 023°32'0 0.0
2018-Jun-11 11:00N 37°58' E 023°32'0 0.0
2018-Jun-11 10:30N 37°58' E 023°32'0 0.0
2018-Jun-11 10:00N 37°58' E 023°32'0 0.0
2018-Jun-11 09:30N 37°58' E 023°32'0 0.0
2018-Jun-11 09:00N 37°58' E 023°32'0 0.0
2018-Jun-11 08:31N 37°58' E 023°32'0 0.0
2018-Jun-11 08:00N 37°58' E 023°32'0 0.0
2018-Jun-11 07:30N 37°58' E 023°32'0 0.0
2018-Jun-11 07:00N 37°58' E 023°32'0 0.0
2018-Jun-11 06:30N 37°58' E 023°32'0 0.0
2018-Jun-10 21:23N 37°58' E 023°32'1 3.5
2018-Jun-10 21:00N 37°58' E 023°33'1 1.1
2018-Jun-10 20:30N 37°58' E 023°33'1 1.6
2018-Jun-10 20:00N 37°58' E 023°32'1 2.5
2018-Jun-10 19:30N 37°58' E 023°33'0 0.4
2018-Jun-10 19:00N 37°58' E 023°33'1 2.3
2018-Jun-10 18:30N 37°58' E 023°32'1 2.4
2018-Jun-10 17:59N 37°58' E 023°33'1 2.6
2018-Jun-10 17:30N 37°58' E 023°32'1 2.4
2018-Jun-10 17:00N 37°58' E 023°33'1 1.7
2018-Jun-10 16:30N 37°58' E 023°32'0 1.0
2018-Jun-10 16:00N 37°58' E 023°32'1 1.5
2018-Jun-10 15:30N 37°58' E 023°33'1 1.3
2018-Jun-10 15:00N 37°58' E 023°33'0 0.0
2018-Jun-10 14:00N 37°58' E 023°33'0 0.0
2018-Jun-10 13:30N 37°58' E 023°33'0 0.0
2018-Jun-10 13:00N 37°58' E 023°33'0 0.0
2018-Jun-09 12:53N 37°58' E 023°33'1 3.3
2018-Jun-09 12:30N 37°58' E 023°32'0 0.0
2018-Jun-09 12:00N 37°58' E 023°32'1 2.4
2018-Jun-09 11:30N 37°58' E 023°33'0 0.2
2018-Jun-09 11:00N 37°58' E 023°33'1 2.3
2018-Jun-09 10:30N 37°58' E 023°32'0 0.0
2018-Jun-09 10:00N 37°58' E 023°32'1 2.4
2018-Jun-09 09:30N 37°58' E 023°33'1 2.4
2018-Jun-09 09:00N 37°58' E 023°32'0 0.1
2018-Jun-09 08:30N 37°58' E 023°32'1 2.1
2018-Jun-09 08:00N 37°58' E 023°33'1 2.2
2018-Jun-09 07:30N 37°58' E 023°32'0 0.9
2018-Jun-09 07:00N 37°58' E 023°32'1 1.9
2018-Jun-09 06:30N 37°58' E 023°33'0 0.0
2018-Jun-09 06:00N 37°58' E 023°33'1 2.5
2018-Jun-09 05:30N 37°58' E 023°32'1 2.4
2018-Jun-09 05:00N 37°58' E 023°33'1 2.5
2018-Jun-09 04:30N 37°58' E 023°32'0 0.0
2018-Jun-08 19:16N 37°58' E 023°32'1 4.9
2018-Jun-08 19:00N 37°58' E 023°33'0 0.3
2018-Jun-08 18:30N 37°58' E 023°33'1 2.3
2018-Jun-08 18:00N 37°58' E 023°32'0 0.4
2018-Jun-08 17:30N 37°58' E 023°32'1 2.3
2018-Jun-08 17:00N 37°58' E 023°33'1 2.5
2018-Jun-08 16:30N 37°58' E 023°32'0 0.0
2018-Jun-08 16:00N 37°58' E 023°32'1 2.5
2018-Jun-08 15:30N 37°58' E 023°33'0 0.6
2018-Jun-08 15:00N 37°58' E 023°33'1 2.2
2018-Jun-08 14:30N 37°58' E 023°32'1 2.5
2018-Jun-08 14:00N 37°58' E 023°33'0 0.0
2018-Jun-08 13:30N 37°58' E 023°33'1 2.5
2018-Jun-08 13:00N 37°58' E 023°32'0 0.4
2018-Jun-08 12:30N 37°58' E 023°32'1 2.2
2018-Jun-08 12:00N 37°58' E 023°33'1 2.4
2018-Jun-08 11:30N 37°58' E 023°32'0 0.0
2018-Jun-08 11:00N 37°58' E 023°32'0 0.0
2018-Jun-08 10:30N 37°58' E 023°32'  

Dump ship's entire track history